Terminal Aerodrome Forecast
Issued by NWS

Current Version | Previous Version | Text Only | Print | Product List | Glossary On
Versions: 1 2 3 4 5 6 7 8 9 10 11 12 13 14 15 16 17 18
000
FTUS41 KALY 242335
TAFPSF
TAF
KPSF 242335Z 2500/2524 VRB05KT P6SM VCSH SCT070 BKN100
     FM250500 00000KT 1SM BR BKN002
     FM251230 24005KT P6SM SKC
     FM251600 27010KT P6SM SCT100 SCT250=

USA.gov is the U.S. government's official web portal to all federal, state and local government web resources and services.